Terminal Aerodrome Forecast
Issued by NWS

Home | Current Version | Previous Version | Text Only | Print | Product List | Glossary On
Versions: 1 2 3 4 5 6 7 8 9 10 11 12 13 14 15
000
FTUS46 KLOX 201149
TAFPMD
TAF
KPMD 201149Z 2012/2112 29018G25KT P6SM SCT025 SCT050
     FM201700 29025G35KT P6SM SCT025 SCT050
     FM210300 29015G23KT P6SM SCT050
     FM210600 27010KT P6SM SKC=

USA.gov is the U.S. government's official web portal to all federal, state and local government web resources and services.